Details From EIDW - Dublin
To EGAA - Belfast Aldergrove
Flight Number -
Tags decoded
Created
Modified
Stats Distance 74 nm / 136 km
Max Altitude 0 ft / 0 m
Waypoints 4
Social Downloads 1
Likes 0
Share VATSIM

Download

Looking for another format? Having issues loading an existing format? Contact us
Advertisement - Login to hide

Notes

Requested: EIDW NEVRI N34 ABSUN EGAA

Route

EIDW NEVRI ABSUN EGAA

ID Type Via Altitude (ft/m) Position (lat/lon) Dist (leg/tot) Name
O EIDW APT - 0 / 0 53.42826 / -6.25955 - / 0 nm Dublin
NEVRI FIX - 0 / 0 54.06833 / -6.27000 38 / 38 nm
ABSUN FIX - 0 / 0 54.29222 / -6.25500 13 / 51 nm
O EGAA APT - 0 / 0 54.65388 / -6.22001 21 / 73 nm Belfast Aldergrove

Altitude Profile

Advertisement - Login to hide

EIDW

Details ICAO EIDW (DUB)
Name Dublin International Airport
Region Ireland
Timezone Europe/Dublin (UTC+1.0)
Stats Elevation 242 ft / 74 m (AMSL)
Location 53.424900° -6.263050°
Runways 2
Magnetic Variation 2.883° W

METAR

EIDW 220830Z 25005KT 220V280 9999 FEW018 05/03 Q1040 NOSIG

Decode

TAF

TAF EIDW 212300Z 2200/2224 28007KT 9999 FEW020 SCT040 BECMG 2211/2213 27012KT TEMPO 2222/2224 26016G26KT

Decode

Departure Runways

ID Width Length Bearing (true/mag) Surface Threshold Overrun Markings Lighting
10 148 ft / 45 m 8,625 ft / 2,629 m 95.25° / 98.13° CONCRETE 0 ft / 0 m 0 ft / 0 m PREC-APP CENTERLINE EDGE THRESHOLD ALSF-II TDZ REIL-OMNI
16 200 ft / 61 m 6,791 ft / 2,070 m 156.63° / 159.52° ASPHALT 0 ft / 0 m 0 ft / 0 m PREC-APP EDGE THRESHOLD ALSF-I
28 148 ft / 45 m 8,625 ft / 2,629 m 275.28° / 278.16° CONCRETE 0 ft / 0 m 0 ft / 0 m PREC-APP CENTERLINE EDGE THRESHOLD ALSF-II TDZ
34 200 ft / 61 m 6,791 ft / 2,070 m 336.64° / 339.53° ASPHALT 0 ft / 0 m 0 ft / 0 m PREC-APP EDGE THRESHOLD SSALF

EGAA

Details ICAO EGAA (BFS)
Name Belfast International
Region United Kingdom
Timezone Europe/London (UTC+1.0)
Stats Elevation 268 ft / 82 m (AMSL)
Location 54.653900° -6.219940°
Runways 2
Magnetic Variation 3.095° W

METAR

EGAA 220820Z 21006KT CAVOK 06/05 Q1038

Decode

TAF

TAF EGAA 220453Z 2206/2306 26012KT 9999 FEW020 SCT035= TAF EGPD 220456Z 2206/2306 27009KT 9999 SCT030 PROB30 TEMPO 2209/2215 28015G25KT BECMG 2215/2218 27019KT TEMPO 2215/2306 28022G34KT PROB30 TEMPO 2218/2303 28027G44KT PROB40 TEMPO 2300/2306 8000 -RA BKN012

Decode

Destination Runways

ID Width Length Bearing (true/mag) Surface Threshold Overrun Markings Lighting
07 147 ft / 45 m 9,124 ft / 2,781 m 65.01° / 68.11° ASPHALT 0 ft / 0 m 0 ft / 0 m APP CENTERLINE EDGE THRESHOLD CALVERT
17 148 ft / 45 m 5,909 ft / 1,801 m 161.99° / 165.09° ASPHALT 525 ft / 160 m 0 ft / 0 m PREC-APP EDGE THRESHOLD CALVERT
25 147 ft / 45 m 9,124 ft / 2,781 m 245.05° / 248.14° ASPHALT 0 ft / 0 m 0 ft / 0 m PREC-APP CENTERLINE EDGE THRESHOLD CALVERT TDZ
35 148 ft / 45 m 5,909 ft / 1,801 m 342.00° / 345.10° ASPHALT 502 ft / 153 m 0 ft / 0 m APP EDGE THRESHOLD MALS

Approach Navaids

Runway Type Ident Frequency Range Bearing (true/mag) Slope Elevation
17 LOC-ILS IFT 110.90 MHz 18 nm / 33 km 162.00° / 165.09 ° - 258 ft / 79 m (AMSL)
17 GS IFT 110.90 MHz 10 nm / 19 km 162.97° / 166.07 ° 3.00° 253 ft / 77 m (AMSL)
17 DME IFT 110.90 MHz 18 nm / 33 km - - 253 ft / 77 m (AMSL)
25 DME IAG 109.90 MHz 18 nm / 33 km - - 305 ft / 93 m (AMSL)
25 LOC-ILS IAG 109.90 MHz 18 nm / 33 km 245.01° / 248.11 ° - 206 ft / 63 m (AMSL)
25 GS IAG 109.90 MHz 10 nm / 19 km 245.06° / 248.16 ° 3.00° 305 ft / 93 m (AMSL)
25 OM OM - - 245.03° / 248.13 ° - 268 ft / 82 m (AMSL)

Popular Alternatives